createdAt,value
2018-04-20T00:01:43.160Z,102368.05
2018-04-20T00:04:46.487Z,102371.02
2018-04-20T00:07:50.663Z,102367.59
2018-04-20T00:10:54.009Z,102362.75
2018-04-20T00:13:57.350Z,102359.72
2018-04-20T00:17:00.667Z,102359.55
2018-04-20T00:20:04.044Z,102352.51
2018-04-20T00:23:07.447Z,102346.78
2018-04-20T00:26:10.863Z,102348.09
2018-04-20T00:29:14.257Z,102343.34
2018-04-20T00:32:17.655Z,102334.08
2018-04-20T00:35:20.973Z,102326.02
2018-04-20T00:38:25.885Z,102328.59
2018-04-20T00:41:29.197Z,102320.16
2018-04-20T00:44:32.559Z,102318.86
2018-04-20T00:47:35.889Z,102313.92
2018-04-20T00:50:39.220Z,102317.63
2018-04-20T00:54:01.118Z,102315.41
2018-04-20T00:57:04.467Z,102311.52
2018-04-20T01:00:07.778Z,102310.04
2018-04-20T01:03:11.205Z,102305.17
2018-04-20T01:06:14.611Z,102304.61
2018-04-20T01:09:18.013Z,102299.84
2018-04-20T01:12:21.365Z,102304.19
2018-04-20T01:15:25.527Z,102292.89
2018-04-20T01:18:28.931Z,102293.86
2018-04-20T01:21:32.330Z,102291.17
2018-04-20T01:24:35.726Z,102283.25
2018-04-20T01:27:39.072Z,102282.99
2018-04-20T01:30:43.163Z,102285.94
2018-04-20T01:33:46.537Z,102284.09
2018-04-20T01:36:49.871Z,102278.79
2018-04-20T01:39:53.978Z,102282.22
2018-04-20T01:42:57.353Z,102278.35
2018-04-20T01:46:00.754Z,102269.48
2018-04-20T01:49:04.144Z,102269.97
2018-04-20T01:52:07.493Z,102263.83
2018-04-20T01:55:11.581Z,102262.86
2018-04-20T01:58:14.931Z,102253.91
2018-04-20T02:01:18.264Z,102254.45
2018-04-20T02:04:21.622Z,102247.79
2018-04-20T02:07:24.941Z,102252.83
2018-04-20T02:10:28.281Z,102241.75
2018-04-20T02:13:31.591Z,102243.30
2018-04-20T02:16:35.700Z,102238.77
2018-04-20T02:19:40.529Z,102236.00
2018-04-20T02:22:45.713Z,102231.51
2018-04-20T02:25:49.046Z,102233.05
2018-04-20T02:28:52.456Z,102227.76
2018-04-20T02:31:55.859Z,102225.14
2018-04-20T02:34:59.213Z,102217.68
2018-04-20T02:38:02.560Z,102215.84
2018-04-20T02:41:05.940Z,102217.91
2018-04-20T02:44:09.365Z,102214.92
2018-04-20T02:47:12.744Z,102211.14
2018-04-20T02:50:16.145Z,102208.24
2018-04-20T02:53:19.541Z,102204.23
2018-04-20T02:56:22.953Z,102189.39
2018-04-20T02:59:26.396Z,102188.44
2018-04-20T03:02:29.755Z,102186.22
2018-04-20T03:05:33.102Z,102180.82
2018-04-20T03:08:36.427Z,102174.15
2018-04-20T03:11:39.793Z,102166.89
2018-04-20T03:14:43.885Z,102158.95
2018-04-20T03:17:47.237Z,102156.95
2018-04-20T03:20:50.555Z,102151.65
2018-04-20T03:23:53.919Z,102147.50
2018-04-20T03:26:57.252Z,102144.02
2018-04-20T03:30:00.585Z,102138.83
2018-04-20T03:33:03.906Z,102134.39
2018-04-20T03:36:07.263Z,102127.40
2018-04-20T03:39:10.653Z,102128.67
2018-04-20T03:42:14.045Z,102123.90
2018-04-20T03:45:17.445Z,102120.88
2018-04-20T03:48:20.858Z,102115.79
2018-04-20T03:51:24.970Z,102110.06
2018-04-20T03:54:28.300Z,102108.12
2018-04-20T03:57:32.413Z,102105.19
2018-04-20T04:00:35.770Z,102099.33
2018-04-20T04:03:39.076Z,102103.12
2018-04-20T04:06:42.481Z,102092.75
2018-04-20T04:09:45.789Z,102089.73
2018-04-20T04:12:49.129Z,102087.31
2018-04-20T04:15:52.482Z,102079.06
2018-04-20T04:23:05.014Z,102069.25
2018-04-20T04:26:26.284Z,102071.95
2018-04-20T04:29:30.376Z,102071.20
2018-04-20T04:32:33.744Z,102067.39
2018-04-20T04:35:37.069Z,102063.11
2018-04-20T04:38:41.187Z,102064.39
2018-04-20T04:41:44.567Z,102062.38
2018-04-20T04:44:47.904Z,102060.42
2018-04-20T04:47:52.103Z,102063.29
2018-04-20T04:50:55.450Z,102059.14
2018-04-20T04:53:58.837Z,102055.44
2018-04-20T04:57:02.177Z,102047.90
2018-04-20T05:00:05.585Z,102046.00
2018-04-20T05:03:08.973Z,102053.13
2018-04-20T05:06:12.382Z,102044.28
2018-04-20T05:09:15.814Z,102051.09
2018-04-20T05:12:19.918Z,102044.42
2018-04-20T05:15:23.403Z,102042.78
2018-04-20T05:18:26.736Z,102039.39
2018-04-20T05:21:30.917Z,102037.61
2018-04-20T05:24:34.305Z,102034.89
2018-04-20T05:27:37.657Z,102039.73
2018-04-20T05:30:41.838Z,102031.91
2018-04-20T05:33:45.241Z,102026.80
2018-04-20T05:36:48.630Z,102029.10
2018-04-20T05:39:52.046Z,102030.93
2018-04-20T05:42:55.378Z,102019.69
2018-04-20T05:45:59.486Z,102020.27
2018-04-20T05:49:03.594Z,102013.01
2018-04-20T05:52:06.924Z,102013.50
2018-04-20T05:55:10.243Z,102010.08
2018-04-20T05:58:13.574Z,102011.82
2018-04-20T06:01:22.431Z,102008.78
2018-04-20T06:04:25.717Z,102009.69
2018-04-20T06:07:29.833Z,102004.11
2018-04-20T06:10:33.914Z,102001.08
2018-04-20T06:13:37.249Z,102002.89
2018-04-20T06:16:41.358Z,101995.91
2018-04-20T06:19:45.470Z,101996.77
2018-04-20T06:22:48.795Z,101994.45
2018-04-20T06:25:52.882Z,101989.55
2018-04-20T06:28:56.217Z,101984.22
2018-04-20T06:31:59.548Z,101984.91
2018-04-20T06:35:02.963Z,101973.83
2018-04-20T06:38:06.371Z,101974.09
2018-04-20T06:41:09.782Z,101966.06
2018-04-20T06:44:13.125Z,101964.51
2018-04-20T06:47:16.562Z,101959.88
2018-04-20T06:50:19.960Z,101956.98
2018-04-20T06:53:23.353Z,101957.06
2018-04-20T06:56:26.768Z,101945.41
2018-04-20T06:59:30.101Z,101945.55
2018-04-20T07:02:33.591Z,101954.45
2018-04-20T07:05:37.670Z,101944.50
2018-04-20T07:08:41.090Z,101944.56
2018-04-20T07:11:44.482Z,101942.83
2018-04-20T07:14:47.911Z,101944.66
2018-04-20T07:17:52.017Z,101939.48
2018-04-20T07:20:55.499Z,101941.25
2018-04-20T07:23:58.911Z,101937.34
2018-04-20T07:27:02.249Z,101933.86
2018-04-20T07:30:05.606Z,101928.58
2018-04-20T07:33:09.098Z,101930.36
2018-04-20T07:36:12.418Z,101935.64
2018-04-20T07:39:15.830Z,101932.10
2018-04-20T07:42:19.938Z,101920.64
2018-04-20T07:45:23.249Z,101912.67
2018-04-20T07:48:27.350Z,101913.92
2018-04-20T07:51:30.733Z,101907.75
2018-04-20T07:54:34.115Z,101907.27
2018-04-20T07:57:37.521Z,101901.05
2018-04-20T08:00:40.938Z,101892.16
2018-04-20T08:03:44.326Z,101892.48
2018-04-20T08:06:47.648Z,101884.44
2018-04-20T08:09:50.981Z,101881.66
2018-04-20T08:12:54.369Z,101878.36
2018-04-20T08:15:58.544Z,101870.80
2018-04-20T08:19:01.950Z,101873.80
2018-04-20T08:22:05.297Z,101870.27
2018-04-20T08:25:08.650Z,101866.16
2018-04-20T08:28:11.990Z,101867.31
2018-04-20T08:31:15.339Z,101873.00
2018-04-20T08:34:18.673Z,101876.73
2018-04-20T08:37:22.789Z,101872.14
2018-04-20T08:40:26.860Z,101865.42
2018-04-20T08:43:30.264Z,101870.17
2018-04-20T08:46:33.828Z,101864.81
2018-04-20T08:49:37.152Z,101870.19
2018-04-20T08:52:40.571Z,101860.67
2018-04-20T08:55:43.980Z,101861.17
2018-04-20T08:58:47.314Z,101857.86
2018-04-20T09:01:51.392Z,101857.79
2018-04-20T09:04:54.729Z,101851.64
2018-04-20T09:07:58.892Z,101849.56
2018-04-20T09:11:02.225Z,101840.89
2018-04-20T09:14:05.566Z,101841.45
2018-04-20T09:17:09.012Z,101848.62
2018-04-20T09:20:12.388Z,101848.14
2018-04-20T09:23:15.709Z,101839.23
2018-04-20T09:26:19.030Z,101835.07
2018-04-20T09:29:23.215Z,101831.29
2018-04-20T09:32:26.569Z,101826.27
2018-04-20T09:35:29.921Z,101822.23
2018-04-20T09:38:33.313Z,101816.81
2018-04-20T09:41:36.706Z,101805.61
2018-04-20T09:44:40.104Z,101804.47
2018-04-20T09:47:43.504Z,101794.98
2018-04-20T09:50:46.842Z,101798.34
2018-04-20T09:53:50.940Z,101802.92
2018-04-20T09:56:54.328Z,101792.31
2018-04-20T09:59:57.650Z,101786.48
2018-04-20T10:03:00.984Z,101783.24
2018-04-20T10:06:04.314Z,101783.72
2018-04-20T10:09:07.713Z,101781.16
2018-04-20T10:12:11.038Z,101775.16
2018-04-20T10:15:14.372Z,101775.66
2018-04-20T10:18:17.806Z,101773.14
2018-04-20T10:21:21.135Z,101773.02
2018-04-20T10:24:24.466Z,101768.15
2018-04-20T10:27:27.801Z,101757.71
2018-04-20T10:30:31.216Z,101748.30
2018-04-20T10:33:34.630Z,101741.28
2018-04-20T10:36:38.004Z,101742.74
2018-04-20T10:39:41.410Z,101739.65
2018-04-20T10:42:44.815Z,101738.84
2018-04-20T10:45:48.209Z,101737.92
2018-04-20T10:48:51.621Z,101730.41
2018-04-20T10:51:55.022Z,101732.64
2018-04-20T10:54:58.412Z,101732.71
2018-04-20T10:58:01.808Z,101736.85
2018-04-20T11:01:05.206Z,101733.89
2018-04-20T11:04:08.548Z,101734.48
2018-04-20T11:07:12.638Z,101732.42
2018-04-20T11:10:16.021Z,101725.01
2018-04-20T11:13:19.355Z,101724.24
2018-04-20T11:16:23.556Z,101729.64
2018-04-20T11:19:26.995Z,101730.50
2018-04-20T11:22:30.362Z,101719.78
2018-04-20T11:25:33.794Z,101722.38
2018-04-20T11:28:37.122Z,101718.12
2018-04-20T11:31:40.450Z,101714.36
2018-04-20T11:34:43.791Z,101711.17
2018-04-20T11:37:47.147Z,101703.70
2018-04-20T11:40:50.466Z,101721.40
2018-04-20T11:43:54.571Z,101699.33
2018-04-20T11:46:57.959Z,101704.86
2018-04-20T11:50:01.350Z,101699.05
2018-04-20T11:53:04.681Z,101696.80
2018-04-20T11:56:08.780Z,101698.38
2018-04-20T11:59:12.222Z,101699.44
2018-04-20T12:02:15.582Z,101699.17
2018-04-20T12:05:18.986Z,101701.70
2018-04-20T12:08:22.349Z,101696.12
2018-04-20T12:11:25.758Z,101686.91
2018-04-20T12:14:29.197Z,101685.72
2018-04-20T12:17:33.181Z,101686.98
2018-04-20T12:20:36.527Z,101681.58
2018-04-20T12:23:39.891Z,101680.64
2018-04-20T12:26:43.205Z,101687.73
2018-04-20T12:29:46.574Z,101691.32
2018-04-20T12:32:49.954Z,101682.20
2018-04-20T12:35:53.310Z,101686.00
2018-04-20T12:38:57.488Z,101678.91
2018-04-20T12:42:00.927Z,101672.00
2018-04-20T12:45:05.110Z,101674.83
2018-04-20T12:48:08.514Z,101669.72
2018-04-20T12:51:11.864Z,101670.77
2018-04-20T12:54:15.188Z,101667.99
2018-04-20T12:57:18.508Z,101667.19
2018-04-20T13:00:21.868Z,101669.62
2018-04-20T13:03:25.192Z,101667.62
2018-04-20T13:06:28.551Z,101664.64
2018-04-20T13:09:32.659Z,101667.31
2018-04-20T13:12:36.742Z,101664.36
2018-04-20T13:15:40.094Z,101662.29
2018-04-20T13:18:43.560Z,101658.53
2018-04-20T13:21:46.883Z,101651.64
2018-04-20T13:24:50.974Z,101651.91
2018-04-20T13:27:54.350Z,101663.89
2018-04-20T13:30:57.689Z,101647.48
2018-04-20T13:34:01.884Z,101647.22
2018-04-20T13:37:05.210Z,101649.34
2018-04-20T13:40:08.587Z,101642.61
2018-04-20T13:43:11.925Z,101644.30
2018-04-20T13:46:15.259Z,101636.80
2018-04-20T13:49:18.594Z,101630.95
2018-04-20T13:52:22.731Z,101637.70
2018-04-20T13:55:26.061Z,101647.34
2018-04-20T13:58:29.490Z,101638.23
2018-04-20T14:01:32.831Z,101636.23
2018-04-20T14:04:36.264Z,101639.27
2018-04-20T14:07:39.684Z,101634.70
2018-04-20T14:10:43.027Z,101628.96
2018-04-20T14:13:46.361Z,101636.14
2018-04-20T14:16:49.765Z,101628.16
2018-04-20T14:19:53.121Z,101624.38
2018-04-20T14:22:56.437Z,101632.68
2018-04-20T14:25:59.878Z,101626.49
2018-04-20T14:29:03.283Z,101646.57
2018-04-20T14:32:06.637Z,101632.50
2018-04-20T14:35:10.024Z,101630.36
2018-04-20T14:38:13.370Z,101634.70
2018-04-20T14:41:16.720Z,101635.44
2018-04-20T14:44:20.050Z,101639.09
2018-04-20T14:47:23.457Z,101642.66
2018-04-20T14:50:26.863Z,101634.06
2018-04-20T14:53:30.320Z,101639.98
2018-04-20T14:56:33.697Z,101635.69
2018-04-20T14:59:37.838Z,101639.74
2018-04-20T15:02:41.181Z,101644.55
2018-04-20T15:05:44.505Z,101644.27
2018-04-20T15:08:47.873Z,101644.03
2018-04-20T15:11:51.294Z,101642.83
2018-04-20T15:14:54.681Z,101648.23
2018-04-20T15:17:58.019Z,101650.34
2018-04-20T15:21:02.153Z,101649.82
2018-04-20T15:24:05.656Z,101651.34
2018-04-20T15:27:08.975Z,101663.29
2018-04-20T15:30:12.324Z,101650.02
2018-04-20T15:33:15.695Z,101653.70
2018-04-20T15:36:19.089Z,101657.62
2018-04-20T15:39:22.559Z,101651.83
2018-04-20T15:42:25.893Z,101656.36
2018-04-20T15:45:29.298Z,101653.47
2018-04-20T15:48:32.627Z,101654.28
2018-04-20T15:51:36.810Z,101648.83
2018-04-20T15:54:40.151Z,101659.73
2018-04-20T15:57:44.221Z,101661.71
2018-04-20T16:00:47.637Z,101662.99
2018-04-20T16:03:51.016Z,101661.11
2018-04-20T16:06:54.426Z,101664.98
2018-04-20T16:09:57.771Z,101664.22
2018-04-20T16:13:01.948Z,101665.95
2018-04-20T16:16:05.353Z,101663.69
2018-04-20T16:19:08.699Z,101669.58
2018-04-20T16:22:12.012Z,101665.06
2018-04-20T16:25:15.343Z,101678.36
2018-04-20T16:28:18.658Z,101681.01
2018-04-20T16:31:21.989Z,101677.50
2018-04-20T16:34:25.340Z,101671.27
2018-04-20T16:37:28.744Z,101671.08
2018-04-20T16:40:32.086Z,101669.62
2018-04-20T16:43:35.429Z,101672.09
2018-04-20T16:46:38.840Z,101674.19
2018-04-20T16:49:42.191Z,101676.20
2018-04-20T16:52:45.505Z,101666.17
2018-04-20T16:55:48.841Z,101673.06
2018-04-20T16:58:52.246Z,101676.45
2018-04-20T17:01:55.640Z,101672.80
2018-04-20T17:04:59.028Z,101665.32
2018-04-20T17:08:02.445Z,101669.55
2018-04-20T17:11:05.830Z,101663.20
2018-04-20T17:14:09.255Z,101660.58
2018-04-20T17:17:12.589Z,101662.51
2018-04-20T17:20:15.936Z,101667.89
2018-04-20T17:23:19.334Z,101657.56
2018-04-20T17:26:23.566Z,101650.81
2018-04-20T17:29:26.956Z,101659.91
2018-04-20T17:32:30.351Z,101666.22
2018-04-20T17:35:33.741Z,101663.14
2018-04-20T17:38:37.056Z,101673.86
2018-04-20T17:41:40.394Z,101665.11
2018-04-20T17:44:43.721Z,101672.61
2018-04-20T17:47:47.141Z,101685.22
2018-04-20T17:50:50.462Z,101679.28
2018-04-20T17:53:54.550Z,101677.80
2018-04-20T17:56:57.895Z,101671.02
2018-04-20T18:00:02.068Z,101669.40
2018-04-20T18:03:05.387Z,101666.55
2018-04-20T18:06:08.726Z,101669.05
2018-04-20T18:09:12.059Z,101668.02
2018-04-20T18:12:15.916Z,101673.48
2018-04-20T18:15:20.019Z,101675.11
2018-04-20T18:18:24.200Z,101681.02
2018-04-20T18:21:27.565Z,101685.25
2018-04-20T18:24:30.900Z,101680.31
2018-04-20T18:27:34.311Z,101688.46
2018-04-20T18:30:37.752Z,101684.39
2018-04-20T18:33:41.106Z,101682.09
2018-04-20T18:36:44.469Z,101685.47
2018-04-20T18:39:47.913Z,101684.47
2018-04-20T18:42:51.297Z,101690.81
2018-04-20T18:45:54.725Z,101697.22
2018-04-20T18:48:58.315Z,101697.13
2018-04-20T18:52:02.460Z,101687.47
2018-04-20T18:55:06.569Z,101691.27
2018-04-20T18:58:10.664Z,101688.13
2018-04-20T19:01:14.010Z,101690.60
2018-04-20T19:04:17.352Z,101691.73
2018-04-20T19:07:20.671Z,101702.14
2018-04-20T19:10:24.050Z,101709.36
2018-04-20T19:13:27.374Z,101705.81
2018-04-20T19:16:30.759Z,101710.08
2018-04-20T19:19:34.159Z,101708.28
2018-04-20T19:22:37.560Z,101707.36
2018-04-20T19:25:40.916Z,101708.13
2018-04-20T19:28:44.262Z,101707.13
2018-04-20T19:31:49.181Z,101703.91
2018-04-20T19:34:52.595Z,101697.66
2018-04-20T19:37:55.986Z,101712.30
2018-04-20T19:40:59.429Z,101706.48
2018-04-20T19:44:03.522Z,101708.59
2018-04-20T19:47:06.856Z,101707.57
2018-04-20T19:50:10.185Z,101705.77
2018-04-20T19:53:13.525Z,101703.48
2018-04-20T19:56:16.911Z,101702.95
2018-04-20T19:59:20.273Z,101704.66
2018-04-20T20:02:23.608Z,101705.05
2018-04-20T20:05:26.952Z,101705.34
2018-04-20T20:08:30.271Z,101706.52
2018-04-20T20:11:33.625Z,101701.63
2018-04-20T20:14:37.762Z,101701.45
2018-04-20T20:17:41.094Z,101691.77
2018-04-20T20:20:44.439Z,101689.42
2018-04-20T20:23:48.642Z,101696.67
2018-04-20T20:26:52.761Z,101698.67
2018-04-20T20:29:56.138Z,101692.89
2018-04-20T20:32:59.624Z,101695.31
2018-04-20T20:36:03.050Z,101690.43
2018-04-20T20:39:06.462Z,101700.77
2018-04-20T20:42:09.842Z,101697.13
2018-04-20T20:45:13.183Z,101700.90
2018-04-20T20:48:17.366Z,101695.55
2018-04-20T20:51:20.688Z,101695.84
2018-04-20T20:54:24.889Z,101693.55
2018-04-20T20:57:29.016Z,101699.86
2018-04-20T21:00:32.393Z,101702.89
2018-04-20T21:03:35.719Z,101700.52
2018-04-20T21:06:39.103Z,101696.91
2018-04-20T21:09:42.485Z,101700.19
2018-04-20T21:12:45.887Z,101704.73
2018-04-20T21:15:49.216Z,101711.97
2018-04-20T21:18:52.585Z,101713.66
2018-04-20T21:21:55.985Z,101713.47
2018-04-20T21:24:59.318Z,101714.61
2018-04-20T21:28:03.407Z,101733.19
2018-04-20T21:31:06.763Z,101730.44
2018-04-20T21:34:10.099Z,101734.47
2018-04-20T21:37:13.472Z,101742.44
2018-04-20T21:40:17.544Z,101745.59
2018-04-20T21:43:20.970Z,101739.14
2018-04-20T21:46:24.374Z,101749.36
2018-04-20T21:49:27.694Z,101748.84
2018-04-20T21:52:31.050Z,101744.62
2018-04-20T21:55:35.153Z,101740.47
2018-04-20T21:58:38.539Z,101737.80
2018-04-20T22:01:41.886Z,101744.06
2018-04-20T22:04:45.224Z,101744.33
2018-04-20T22:07:48.622Z,101747.59
2018-04-20T22:10:51.955Z,101747.03
2018-04-20T22:13:55.326Z,101748.13
2018-04-20T22:16:58.721Z,101747.97
2018-04-20T22:20:02.141Z,101744.52
2018-04-20T22:23:05.530Z,101747.80
2018-04-20T22:26:08.875Z,101749.36
2018-04-20T22:29:12.211Z,101747.45
2018-04-20T22:32:15.622Z,101742.88
2018-04-20T22:35:18.951Z,101744.61
2018-04-20T22:38:23.139Z,101744.17
2018-04-20T22:41:26.490Z,101753.06
2018-04-20T22:44:29.819Z,101752.86
2018-04-20T22:47:33.148Z,101754.30
2018-04-20T22:50:36.485Z,101762.37
2018-04-20T22:53:39.809Z,101762.60
2018-04-20T22:56:43.133Z,101765.01
2018-04-20T22:59:46.449Z,101764.48
2018-04-20T23:02:49.773Z,101765.29
2018-04-20T23:05:53.948Z,101767.67
2018-04-20T23:08:57.260Z,101761.33
2018-04-20T23:12:00.641Z,101760.39
2018-04-20T23:15:03.966Z,101762.02
2018-04-20T23:18:07.293Z,101771.16
2018-04-20T23:21:10.613Z,101771.84
2018-04-20T23:24:13.926Z,101764.84
2018-04-20T23:27:17.342Z,101765.69
2018-04-20T23:30:22.190Z,101760.86
2018-04-20T23:33:26.288Z,101766.48
2018-04-20T23:36:29.692Z,101760.02
2018-04-20T23:39:33.000Z,101770.80
2018-04-20T23:42:36.378Z,101764.66
2018-04-20T23:45:39.776Z,101772.10
2018-04-20T23:48:43.177Z,101768.89
2018-04-20T23:51:46.496Z,101767.94
2018-04-20T23:54:49.888Z,101780.36
2018-04-20T23:57:53.223Z,101780.73
